Terminal Aerodrome Forecast
Issued by NWS Mt. Holly, NJ

Home | Current Version | Previous Version | Text Only | Print | Product List | Glossary On
Versions: 1 2 3 4 5 6 7 8 9 10 11 12 13 14 15 16
000
FTUS41 KPHI 261129
TAFILG
TAF
KILG 261129Z 2612/2712 30014G24KT P6SM BKN045
     FM262200 27008KT P6SM FEW060
     FM270100 24004KT P6SM SKC
     FM271000 19004KT P6SM BKN250=

USA.gov is the U.S. government's official web portal to all federal, state and local government web resources and services.